createdAt,value
2022-10-17T00:00:12.710Z,12.65
2022-10-17T00:03:01.426Z,12.65
2022-10-17T00:05:51.477Z,12.45
2022-10-17T00:08:41.671Z,12.51
2022-10-17T00:11:30.392Z,12.36
2022-10-17T00:14:19.355Z,12.40
2022-10-17T00:17:08.105Z,12.48
2022-10-17T00:19:56.722Z,12.47
2022-10-17T00:22:46.884Z,12.47
2022-10-17T00:25:35.612Z,12.27
2022-10-17T00:28:24.246Z,12.30
2022-10-17T00:31:13.000Z,12.37
2022-10-17T00:34:01.568Z,12.19
2022-10-17T00:36:50.246Z,12.23
2022-10-17T00:39:40.527Z,12.19
2022-10-17T00:42:30.211Z,12.15
2022-10-17T00:45:23.578Z,12.05
2022-10-17T00:48:13.501Z,11.68
2022-10-17T00:51:02.132Z,12.23
2022-10-17T00:53:52.091Z,12.28
2022-10-17T00:56:42.358Z,12.13
2022-10-17T00:59:34.283Z,12.28
2022-10-17T01:02:23.733Z,12.05
2022-10-17T01:05:13.173Z,12.09
2022-10-17T01:08:02.404Z,12.08
2022-10-17T01:10:59.063Z,12.00
2022-10-17T01:13:54.863Z,11.96
2022-10-17T01:16:52.427Z,11.97
2022-10-17T01:20:07.635Z,11.94
2022-10-17T01:23:08.199Z,11.93
2022-10-17T01:26:04.627Z,11.92
2022-10-17T01:29:40.418Z,11.99
2022-10-17T01:32:37.047Z,11.94
2022-10-17T01:35:30.403Z,11.71
2022-10-17T01:38:23.179Z,11.86
2022-10-17T01:41:19.835Z,11.97
2022-10-17T01:44:13.572Z,11.92
2022-10-17T01:47:05.800Z,11.57
2022-10-17T01:50:01.424Z,11.79
2022-10-17T01:52:54.088Z,11.55
2022-10-17T01:55:45.720Z,11.59
2022-10-17T01:58:38.203Z,11.57
2022-10-17T02:01:30.879Z,11.58
2022-10-17T02:04:20.273Z,11.53
2022-10-17T02:07:11.147Z,11.16
2022-10-17T02:09:59.753Z,11.55
2022-10-17T02:12:55.787Z,11.54
2022-10-17T02:15:57.638Z,11.59
2022-10-17T02:19:08.453Z,11.48
2022-10-17T02:22:08.533Z,11.55
2022-10-17T02:25:04.215Z,11.40
2022-10-17T02:27:57.872Z,10.95
2022-10-17T02:30:51.327Z,11.54
2022-10-17T02:33:45.452Z,11.46
2022-10-17T02:36:40.458Z,10.80
2022-10-17T02:39:30.818Z,11.29
2022-10-17T02:42:24.839Z,11.37
2022-10-17T02:45:14.260Z,11.15
2022-10-17T02:48:07.288Z,11.29
2022-10-17T02:51:05.512Z,11.25
2022-10-17T02:54:02.878Z,11.24
2022-10-17T02:56:54.663Z,11.19
2022-10-17T02:59:47.002Z,11.22
2022-10-17T03:02:41.395Z,11.16
2022-10-17T03:05:31.103Z,11.14
2022-10-17T03:08:19.855Z,11.12
2022-10-17T03:11:08.691Z,11.23
2022-10-17T03:13:57.277Z,11.28
2022-10-17T03:16:47.434Z,11.16
2022-10-17T03:19:36.005Z,11.24
2022-10-17T03:22:24.755Z,11.14
2022-10-17T03:25:13.412Z,11.02
2022-10-17T03:28:02.623Z,10.98
2022-10-17T03:30:51.219Z,10.94
2022-10-17T03:33:41.503Z,11.04
2022-10-17T03:36:30.225Z,10.94
2022-10-17T03:39:18.910Z,10.96
2022-10-17T03:42:07.539Z,10.77
2022-10-17T03:44:56.224Z,10.83
2022-10-17T03:47:44.823Z,10.90
2022-10-17T03:50:34.879Z,10.94
2022-10-17T03:53:23.423Z,10.95
2022-10-17T03:56:14.924Z,10.98
2022-10-17T03:59:03.588Z,10.87
2022-10-17T04:01:52.184Z,10.80
2022-10-17T04:04:40.804Z,10.30
2022-10-17T04:07:30.903Z,10.73
2022-10-17T04:10:19.568Z,9.81
2022-10-17T04:13:08.183Z,10.75
2022-10-17T04:15:57.819Z,10.67
2022-10-17T04:18:46.538Z,10.64
2022-10-17T04:21:35.174Z,10.71
2022-10-17T04:24:25.968Z,10.59
2022-10-17T04:27:14.652Z,10.56
2022-10-17T04:30:03.274Z,10.54
2022-10-17T04:32:51.833Z,10.57
2022-10-17T04:35:40.529Z,10.42
2022-10-17T04:38:30.040Z,10.53
2022-10-17T04:41:20.813Z,10.27
2022-10-17T04:44:09.458Z,10.48
2022-10-17T04:46:58.113Z,10.51
2022-10-17T04:49:46.739Z,10.59
2022-10-17T04:52:37.696Z,10.35
2022-10-17T04:55:26.299Z,10.51
2022-10-17T04:58:16.893Z,10.35
2022-10-17T05:01:09.409Z,10.54
2022-10-17T05:03:58.135Z,10.33
2022-10-17T05:06:46.742Z,10.40
2022-10-17T05:09:35.339Z,10.40
2022-10-17T05:12:23.885Z,10.42
2022-10-17T05:15:14.117Z,10.25
2022-10-17T05:18:02.738Z,10.39
2022-10-17T05:20:51.340Z,10.20
2022-10-17T05:23:39.932Z,10.39
2022-10-17T05:26:28.753Z,10.44
2022-10-17T05:29:17.562Z,10.39
2022-10-17T05:32:07.634Z,10.37
2022-10-17T05:34:56.218Z,10.55
2022-10-17T05:37:44.849Z,10.51
2022-10-17T05:40:33.479Z,10.57
2022-10-17T05:43:22.058Z,10.32
2022-10-17T05:46:11.233Z,10.61
2022-10-17T05:49:01.303Z,10.71
2022-10-17T05:51:49.948Z,10.78
2022-10-17T05:54:38.592Z,10.73
2022-10-17T05:57:27.225Z,10.72
2022-10-17T06:00:16.158Z,10.85
2022-10-17T06:03:04.934Z,10.93
2022-10-17T06:05:54.995Z,10.82
2022-10-17T06:08:44.470Z,10.95
2022-10-17T06:11:33.483Z,10.99
2022-10-17T06:14:22.492Z,11.03
2022-10-17T06:17:15.740Z,11.11
2022-10-17T06:20:05.343Z,11.16
2022-10-17T06:22:55.440Z,11.27
2022-10-17T06:25:44.065Z,11.39
2022-10-17T06:28:33.067Z,11.46
2022-10-17T06:31:21.692Z,11.77
2022-10-17T06:35:14.740Z,11.89
2022-10-17T06:38:04.524Z,12.01
2022-10-17T06:40:54.210Z,12.05
2022-10-17T06:43:46.408Z,12.14
2022-10-17T06:46:35.057Z,11.98
2022-10-17T06:49:24.007Z,12.29
2022-10-17T06:52:14.897Z,12.53
2022-10-17T06:57:57.573Z,12.96
2022-10-17T07:00:46.308Z,13.09
2022-10-17T07:03:35.052Z,13.27
2022-10-17T07:06:24.866Z,13.34
2022-10-17T07:09:14.886Z,13.39
2022-10-17T07:12:06.965Z,13.63
2022-10-17T07:14:55.564Z,13.51
2022-10-17T07:17:44.349Z,13.97
2022-10-17T07:20:33.071Z,13.96
2022-10-17T07:23:21.754Z,14.15
2022-10-17T07:26:13.342Z,14.18
2022-10-17T07:29:02.066Z,14.30
2022-10-17T07:31:52.184Z,14.49
2022-10-17T07:34:40.764Z,14.64
2022-10-17T07:37:30.605Z,14.81
2022-10-17T07:40:19.500Z,14.82
2022-10-17T07:43:09.580Z,15.02
2022-10-17T07:45:58.154Z,15.16
2022-10-17T07:48:46.794Z,15.24
2022-10-17T07:51:35.618Z,15.19
2022-10-17T07:54:24.349Z,15.44
2022-10-17T07:57:13.026Z,15.53
2022-10-17T08:00:03.089Z,15.77
2022-10-17T08:02:51.782Z,15.84
2022-10-17T08:05:40.340Z,15.98
2022-10-17T08:08:29.634Z,16.02
2022-10-17T08:11:18.264Z,16.12
2022-10-17T08:14:06.964Z,16.21
2022-10-17T08:16:57.405Z,16.32
2022-10-17T08:19:46.062Z,16.31
2022-10-17T08:22:35.159Z,16.27
2022-10-17T08:25:25.158Z,16.32
2022-10-17T08:28:13.799Z,16.55
2022-10-17T08:31:07.212Z,16.69
2022-10-17T08:33:57.623Z,16.73
2022-10-17T08:36:46.283Z,17.01
2022-10-17T08:39:34.845Z,17.18
2022-10-17T08:42:36.098Z,17.32
2022-10-17T08:45:31.744Z,17.48
2022-10-17T08:48:24.789Z,17.45
2022-10-17T08:51:19.013Z,17.36
2022-10-17T08:54:14.671Z,17.37
2022-10-17T08:57:03.363Z,17.56
2022-10-17T08:59:53.954Z,17.58
2022-10-17T09:02:56.705Z,17.83
2022-10-17T09:05:51.824Z,18.02
2022-10-17T09:08:51.448Z,17.54
2022-10-17T09:11:50.093Z,18.04
2022-10-17T09:15:05.909Z,18.20
2022-10-17T09:17:58.494Z,18.07
2022-10-17T09:20:52.842Z,17.61
2022-10-17T09:23:48.064Z,18.24
2022-10-17T09:26:36.770Z,18.30
2022-10-17T09:29:31.015Z,18.40
2022-10-17T09:32:26.885Z,18.19
2022-10-17T09:35:16.728Z,18.37
2022-10-17T09:38:05.768Z,18.41
2022-10-17T09:40:58.601Z,18.64
2022-10-17T09:43:47.999Z,18.78
2022-10-17T09:46:39.465Z,18.85
2022-10-17T09:49:33.800Z,18.94
2022-10-17T09:52:27.267Z,19.04
2022-10-17T09:55:21.638Z,19.03
2022-10-17T09:58:12.794Z,19.09
2022-10-17T10:01:21.067Z,18.96
2022-10-17T10:04:14.024Z,19.17
2022-10-17T10:07:05.235Z,19.24
2022-10-17T10:09:54.768Z,19.26
2022-10-17T10:12:44.645Z,19.42
2022-10-17T10:15:38.874Z,19.41
2022-10-17T10:18:34.048Z,19.56
2022-10-17T10:21:24.557Z,19.52
2022-10-17T10:24:14.878Z,19.69
2022-10-17T10:27:05.395Z,19.77
2022-10-17T10:29:54.819Z,19.84
2022-10-17T10:32:48.203Z,19.59
2022-10-17T10:35:38.448Z,19.77
2022-10-17T10:38:27.582Z,19.75
2022-10-17T10:41:16.229Z,19.50
2022-10-17T10:44:06.611Z,20.11
2022-10-17T10:47:16.073Z,20.09
2022-10-17T10:50:26.788Z,20.14
2022-10-17T10:53:31.690Z,20.28
2022-10-17T10:56:27.394Z,20.28
2022-10-17T10:59:26.698Z,20.38
2022-10-17T11:02:21.628Z,19.80
2022-10-17T11:05:19.294Z,20.31
2022-10-17T11:08:21.908Z,20.47
2022-10-17T11:11:19.735Z,19.79
2022-10-17T11:14:14.678Z,20.68
2022-10-17T11:17:13.506Z,20.61
2022-10-17T11:20:12.739Z,20.61
2022-10-17T11:23:19.921Z,20.81
2022-10-17T11:26:15.293Z,21.04
2022-10-17T11:29:06.724Z,21.20
2022-10-17T11:31:58.153Z,20.59
2022-10-17T11:34:49.546Z,20.26
2022-10-17T11:37:46.015Z,21.19
2022-10-17T11:40:41.656Z,20.82
2022-10-17T11:43:35.082Z,21.47
2022-10-17T11:46:25.493Z,21.93
2022-10-17T11:49:20.393Z,21.66
2022-10-17T11:52:51.293Z,22.15
2022-10-17T11:55:34.605Z,22.29
2022-10-17T11:58:32.948Z,22.53
2022-10-17T12:01:32.356Z,22.80
2022-10-17T12:04:35.821Z,23.06
2022-10-17T12:07:32.145Z,23.29
2022-10-17T12:10:33.016Z,23.50
2022-10-17T12:13:53.792Z,23.57
2022-10-17T12:16:48.686Z,23.80
2022-10-17T12:19:38.767Z,23.72
2022-10-17T12:22:27.949Z,23.32
2022-10-17T12:25:21.077Z,23.10
2022-10-17T12:28:15.442Z,23.15
2022-10-17T12:31:12.693Z,22.88
2022-10-17T12:34:02.895Z,22.87
2022-10-17T12:36:51.549Z,22.89
2022-10-17T12:39:46.985Z,23.47
2022-10-17T12:42:51.496Z,23.83
2022-10-17T12:45:52.228Z,23.78
2022-10-17T12:49:06.537Z,23.86
2022-10-17T12:52:29.903Z,24.18
2022-10-17T12:55:19.855Z,24.15
2022-10-17T12:58:16.179Z,24.19
2022-10-17T13:01:23.588Z,24.15
2022-10-17T13:04:15.084Z,24.35
2022-10-17T13:07:03.810Z,24.45
2022-10-17T13:09:53.296Z,24.63
2022-10-17T13:12:42.059Z,24.48
2022-10-17T13:15:30.879Z,24.58
2022-10-17T13:18:24.303Z,24.73
2022-10-17T13:21:18.488Z,24.85
2022-10-17T13:24:22.233Z,25.11
2022-10-17T13:27:25.336Z,25.74
2022-10-17T13:30:29.461Z,26.03
2022-10-17T13:33:33.794Z,26.59
2022-10-17T13:36:23.867Z,26.81
2022-10-17T13:39:19.678Z,26.97
2022-10-17T13:42:22.969Z,28.00
2022-10-17T13:45:20.409Z,29.37
2022-10-17T13:48:21.313Z,30.68
2022-10-17T13:51:11.159Z,31.87
2022-10-17T13:54:01.583Z,32.63
2022-10-17T13:56:57.283Z,33.11
2022-10-17T13:59:49.233Z,33.48
2022-10-17T14:02:38.287Z,33.64
2022-10-17T14:05:28.197Z,34.45
2022-10-17T14:08:23.188Z,35.04
2022-10-17T14:11:23.791Z,35.56
2022-10-17T14:14:21.894Z,36.03
2022-10-17T14:17:23.058Z,35.78
2022-10-17T14:20:57.572Z,34.90
2022-10-17T14:23:32.389Z,34.47
2022-10-17T14:26:24.132Z,33.97
2022-10-17T14:29:24.595Z,33.29
2022-10-17T14:32:16.377Z,31.68
2022-10-17T14:35:30.213Z,30.85
2022-10-17T14:38:17.617Z,30.02
2022-10-17T14:41:40.922Z,29.05
2022-10-17T14:44:27.223Z,27.58
2022-10-17T14:47:42.110Z,25.68
2022-10-17T14:50:32.041Z,24.81
2022-10-17T14:53:22.703Z,23.58
2022-10-17T14:56:25.285Z,23.55
2022-10-17T14:59:30.149Z,23.13
2022-10-17T15:02:29.194Z,22.59
2022-10-17T15:05:18.519Z,22.08
2022-10-17T15:08:07.843Z,22.00
2022-10-17T15:10:56.505Z,21.90
2022-10-17T15:13:45.814Z,21.75
2022-10-17T15:16:35.948Z,21.54
2022-10-17T15:19:26.025Z,21.24
2022-10-17T15:22:14.909Z,21.26
2022-10-17T15:25:03.552Z,21.05
2022-10-17T15:27:52.626Z,20.89
2022-10-17T15:30:41.493Z,20.56
2022-10-17T15:33:30.039Z,20.25
2022-10-17T15:36:26.209Z,20.00
2022-10-17T15:39:14.953Z,19.90
2022-10-17T15:42:03.532Z,19.78
2022-10-17T15:44:52.168Z,19.74
2022-10-17T15:47:42.025Z,19.63
2022-10-17T15:50:30.829Z,19.49
2022-10-17T15:53:20.854Z,19.44
2022-10-17T15:56:16.163Z,19.32
2022-10-17T15:59:05.959Z,19.10
2022-10-17T16:01:54.849Z,19.00
2022-10-17T16:04:43.893Z,18.74
2022-10-17T16:07:32.770Z,18.69
2022-10-17T16:10:24.153Z,18.57
2022-10-17T16:13:17.808Z,18.34
2022-10-17T16:16:06.923Z,18.20
2022-10-17T16:18:55.804Z,18.13
2022-10-17T16:21:44.448Z,17.99
2022-10-17T16:24:33.088Z,17.89
2022-10-17T16:27:23.192Z,17.83
2022-10-17T16:30:11.935Z,17.77
2022-10-17T16:33:00.833Z,17.66
2022-10-17T16:35:49.965Z,17.65
2022-10-17T16:38:38.708Z,17.66
2022-10-17T16:41:29.865Z,17.56
2022-10-17T16:44:20.045Z,17.42
2022-10-17T16:47:09.956Z,17.34
2022-10-17T16:49:58.707Z,17.10
2022-10-17T16:52:47.307Z,17.23
2022-10-17T16:55:35.914Z,17.20
2022-10-17T16:58:27.536Z,17.12
2022-10-17T17:01:19.299Z,16.77
2022-10-17T17:04:09.301Z,16.34
2022-10-17T17:06:58.713Z,16.95
2022-10-17T17:09:48.015Z,16.92
2022-10-17T17:12:37.843Z,16.74
2022-10-17T17:15:27.530Z,16.97
2022-10-17T17:18:18.004Z,16.90
2022-10-17T17:21:08.691Z,16.88
2022-10-17T17:23:59.283Z,16.69
2022-10-17T17:26:52.071Z,16.27
2022-10-17T17:29:42.336Z,16.51
2022-10-17T17:32:31.954Z,16.71
2022-10-17T17:35:22.503Z,16.67
2022-10-17T17:38:12.163Z,16.68
2022-10-17T17:41:02.406Z,16.16
2022-10-17T17:43:52.713Z,16.62
2022-10-17T17:46:44.018Z,16.48
2022-10-17T17:49:33.793Z,16.42
2022-10-17T17:52:25.538Z,16.52
2022-10-17T17:55:15.120Z,16.06
2022-10-17T17:58:08.024Z,16.25
2022-10-17T18:00:57.364Z,16.31
2022-10-17T18:03:48.475Z,15.91
2022-10-17T18:06:38.748Z,15.96
2022-10-17T18:09:31.781Z,16.14
2022-10-17T18:12:20.969Z,16.19
2022-10-17T18:15:11.939Z,16.05
2022-10-17T18:18:02.758Z,16.14
2022-10-17T18:20:52.801Z,16.03
2022-10-17T18:23:43.009Z,16.10
2022-10-17T18:26:35.343Z,15.96
2022-10-17T18:29:27.597Z,16.00
2022-10-17T18:32:17.746Z,16.00
2022-10-17T18:35:08.258Z,16.03
2022-10-17T18:37:57.845Z,15.92
2022-10-17T18:40:50.683Z,15.33
2022-10-17T18:43:44.354Z,15.81
2022-10-17T18:46:36.951Z,15.68
2022-10-17T18:49:26.710Z,15.71
2022-10-17T18:52:16.853Z,15.66
2022-10-17T18:55:07.206Z,15.56
2022-10-17T18:57:57.193Z,15.63
2022-10-17T19:00:52.303Z,15.52
2022-10-17T19:03:42.454Z,15.36
2022-10-17T19:06:33.435Z,15.31
2022-10-17T19:09:22.068Z,15.56
2022-10-17T19:12:11.123Z,15.51
2022-10-17T19:14:59.979Z,15.47
2022-10-17T19:17:51.953Z,15.43
2022-10-17T19:20:42.427Z,15.41
2022-10-17T19:23:31.698Z,15.38
2022-10-17T19:26:22.819Z,15.19
2022-10-17T19:29:15.159Z,15.28
2022-10-17T19:32:06.889Z,15.22
2022-10-17T19:34:58.887Z,15.04
2022-10-17T19:37:48.271Z,15.19
2022-10-17T19:40:42.435Z,15.17
2022-10-17T19:43:31.217Z,15.18
2022-10-17T19:46:21.624Z,14.44
2022-10-17T19:49:11.659Z,15.13
2022-10-17T19:52:02.609Z,15.04
2022-10-17T19:54:51.714Z,15.08
2022-10-17T19:57:41.178Z,14.98
2022-10-17T20:00:30.729Z,15.01
2022-10-17T20:03:21.034Z,15.05
2022-10-17T20:06:10.643Z,15.05
2022-10-17T20:09:01.013Z,14.93
2022-10-17T20:11:51.588Z,14.87
2022-10-17T20:14:42.750Z,14.89
2022-10-17T20:17:31.667Z,14.62
2022-10-17T20:20:20.738Z,14.81
2022-10-17T20:23:09.981Z,14.78
2022-10-17T20:26:08.750Z,14.31
2022-10-17T20:29:11.373Z,14.47
2022-10-17T20:32:00.324Z,14.82
2022-10-17T20:34:49.374Z,14.46
2022-10-17T20:37:41.703Z,14.29
2022-10-17T20:40:35.542Z,14.63
2022-10-17T20:43:25.995Z,14.58
2022-10-17T20:46:35.201Z,14.57
2022-10-17T20:49:24.849Z,14.10
2022-10-17T20:52:13.839Z,14.52
2022-10-17T20:55:02.457Z,14.51
2022-10-17T20:57:54.199Z,14.44
2022-10-17T21:00:44.714Z,14.27
2022-10-17T21:03:37.897Z,14.28
2022-10-17T21:06:28.773Z,14.42
2022-10-17T21:09:17.400Z,14.41
2022-10-17T21:12:06.168Z,14.40
2022-10-17T21:14:54.742Z,14.35
2022-10-17T21:17:44.816Z,14.32
2022-10-17T21:20:33.443Z,14.08
2022-10-17T21:23:22.074Z,14.19
2022-10-17T21:26:12.723Z,14.07
2022-10-17T21:29:05.674Z,14.19
2022-10-17T21:31:54.322Z,14.17
2022-10-17T21:34:44.390Z,14.16
2022-10-17T21:37:32.998Z,14.15
2022-10-17T21:40:21.762Z,14.16
2022-10-17T21:43:10.383Z,13.94
2022-10-17T21:46:03.173Z,14.01
2022-10-17T21:48:52.385Z,14.01
2022-10-17T21:51:43.169Z,13.99
2022-10-17T21:54:31.819Z,13.91
2022-10-17T21:57:20.435Z,13.84
2022-10-17T22:00:10.613Z,13.70
2022-10-17T22:03:00.179Z,13.47
2022-10-17T22:05:48.775Z,13.85
2022-10-17T22:08:39.728Z,13.74
2022-10-17T22:11:30.417Z,13.78
2022-10-17T22:14:20.741Z,13.84
2022-10-17T22:17:09.316Z,13.59
2022-10-17T22:19:57.916Z,13.56
2022-10-17T22:22:46.537Z,13.59
2022-10-17T22:25:36.613Z,13.54
2022-10-17T22:28:25.937Z,13.61
2022-10-17T22:31:14.791Z,13.59
2022-10-17T22:34:05.129Z,13.55
2022-10-17T22:36:54.284Z,13.42
2022-10-17T22:39:42.865Z,12.94
2022-10-17T22:42:34.690Z,13.45
2022-10-17T22:45:23.364Z,13.41
2022-10-17T22:48:12.027Z,13.42
2022-10-17T22:51:01.824Z,13.43
2022-10-17T22:53:50.389Z,13.17
2022-10-17T22:56:39.121Z,13.38
2022-10-17T22:59:29.183Z,13.38
2022-10-17T23:02:17.837Z,13.29
2022-10-17T23:05:06.779Z,13.29
2022-10-17T23:07:55.126Z,13.30
2022-10-17T23:10:43.432Z,13.27
2022-10-17T23:13:31.785Z,13.23
2022-10-17T23:16:21.873Z,13.15
2022-10-17T23:19:10.178Z,13.15
2022-10-17T23:21:58.557Z,13.14
2022-10-17T23:24:47.135Z,13.13
2022-10-17T23:27:36.043Z,13.12
2022-10-17T23:30:24.690Z,13.10
2022-10-17T23:33:15.320Z,13.07
2022-10-17T23:36:05.731Z,13.07
2022-10-17T23:38:57.801Z,13.08
2022-10-17T23:41:47.293Z,12.62
2022-10-17T23:44:35.944Z,12.58
2022-10-17T23:47:24.600Z,12.99
2022-10-17T23:50:14.756Z,12.89
2022-10-17T23:53:03.354Z,12.79
2022-10-17T23:55:52.262Z,12.78
2022-10-17T23:58:41.395Z,12.75
